sensor_id;sensor_type;location;lat;lon;timestamp;pressure;altitude;pressure_sealevel;temperature;humidity
41947;BME280;27638;42.184;24.848;2022-11-13T00:00:41;101505.34;;;11.94;100.00
41947;BME280;27638;42.184;24.848;2022-11-13T00:03:06;101505.34;;;11.94;100.00
41947;BME280;27638;42.184;24.848;2022-11-13T00:05:31;101501.78;;;11.83;100.00
41947;BME280;27638;42.184;24.848;2022-11-13T00:07:57;101505.47;;;11.92;100.00
41947;BME280;27638;42.184;24.848;2022-11-13T00:10:22;101486.84;;;11.82;100.00
41947;BME280;27638;42.184;24.848;2022-11-13T00:12:48;101489.31;;;11.95;100.00
41947;BME280;27638;42.184;24.848;2022-11-13T00:15:13;101497.66;;;11.91;100.00
41947;BME280;27638;42.184;24.848;2022-11-13T00:17:39;101485.47;;;11.88;100.00
41947;BME280;27638;42.184;24.848;2022-11-13T00:20:05;101485.84;;;11.83;100.00
41947;BME280;27638;42.184;24.848;2022-11-13T00:22:30;101485.41;;;11.67;100.00
41947;BME280;27638;42.184;24.848;2022-11-13T00:24:56;101488.56;;;11.61;100.00
41947;BME280;27638;42.184;24.848;2022-11-13T00:27:21;101483.28;;;11.61;100.00
41947;BME280;27638;42.184;24.848;2022-11-13T00:29:47;101490.84;;;11.66;100.00
41947;BME280;27638;42.184;24.848;2022-11-13T00:32:12;101490.59;;;11.80;100.00
41947;BME280;27638;42.184;24.848;2022-11-13T00:34:37;101487.69;;;11.83;100.00
41947;BME280;27638;42.184;24.848;2022-11-13T00:37:03;101488.38;;;11.85;100.00
41947;BME280;27638;42.184;24.848;2022-11-13T00:39:28;101488.06;;;11.78;100.00
41947;BME280;27638;42.184;24.848;2022-11-13T00:41:54;101491.16;;;11.83;100.00
41947;BME280;27638;42.184;24.848;2022-11-13T00:44:19;101488.19;;;11.66;100.00
41947;BME280;27638;42.184;24.848;2022-11-13T00:46:45;101495.63;;;11.83;100.00
41947;BME280;27638;42.184;24.848;2022-11-13T00:49:10;101481.53;;;11.82;100.00
41947;BME280;27638;42.184;24.848;2022-11-13T00:51:37;101483.88;;;11.97;100.00
41947;BME280;27638;42.184;24.848;2022-11-13T00:54:02;101487.94;;;12.01;100.00
41947;BME280;27638;42.184;24.848;2022-11-13T00:56:28;101491.13;;;11.95;100.00
41947;BME280;27638;42.184;24.848;2022-11-13T00:58:53;101497.00;;;11.98;100.00
41947;BME280;27638;42.184;24.848;2022-11-13T01:01:19;101496.38;;;12.06;100.00
41947;BME280;27638;42.184;24.848;2022-11-13T01:03:45;101486.78;;;11.94;100.00
41947;BME280;27638;42.184;24.848;2022-11-13T01:06:17;101492.47;;;11.89;100.00
41947;BME280;27638;42.184;24.848;2022-11-13T01:08:44;101489.88;;;11.99;100.00
41947;BME280;27638;42.184;24.848;2022-11-13T01:11:17;101488.00;;;11.90;100.00
41947;BME280;27638;42.184;24.848;2022-11-13T01:13:45;101491.63;;;11.89;100.00
41947;BME280;27638;42.184;24.848;2022-11-13T01:16:12;101485.81;;;11.95;100.00
41947;BME280;27638;42.184;24.848;2022-11-13T01:18:39;101490.41;;;11.93;100.00
41947;BME280;27638;42.184;24.848;2022-11-13T01:21:11;101486.78;;;11.94;100.00
41947;BME280;27638;42.184;24.848;2022-11-13T01:23:38;101479.53;;;11.96;100.00
41947;BME280;27638;42.184;24.848;2022-11-13T01:26:24;101485.09;;;11.93;100.00
41947;BME280;27638;42.184;24.848;2022-11-13T01:28:50;101486.06;;;11.92;100.00
41947;BME280;27638;42.184;24.848;2022-11-13T01:31:20;101488.00;;;11.90;100.00
41947;BME280;27638;42.184;24.848;2022-11-13T01:33:47;101483.47;;;11.80;100.00
41947;BME280;27638;42.184;24.848;2022-11-13T01:36:20;101487.09;;;11.79;100.00
41947;BME280;27638;42.184;24.848;2022-11-13T01:38:46;101483.28;;;11.93;100.00
41947;BME280;27638;42.184;24.848;2022-11-13T01:41:23;101474.66;;;11.80;100.00
41947;BME280;27638;42.184;24.848;2022-11-13T01:43:50;101469.56;;;11.77;100.00
41947;BME280;27638;42.184;24.848;2022-11-13T01:46:20;101483.47;;;11.80;100.00
41947;BME280;27638;42.184;24.848;2022-11-13T01:48:54;101475.38;;;11.82;100.00
41947;BME280;27638;42.184;24.848;2022-11-13T01:51:29;101472.00;;;11.80;100.00
41947;BME280;27638;42.184;24.848;2022-11-13T01:53:57;101470.38;;;11.89;100.00
41947;BME280;27638;42.184;24.848;2022-11-13T01:56:24;101467.03;;;11.87;100.00
41947;BME280;27638;42.184;24.848;2022-11-13T01:58:54;101469.88;;;11.95;100.00
41947;BME280;27638;42.184;24.848;2022-11-13T02:01:21;101459.00;;;11.98;100.00
41947;BME280;27638;42.184;24.848;2022-11-13T02:03:47;101469.28;;;11.91;100.00
41947;BME280;27638;42.184;24.848;2022-11-13T02:06:12;101466.56;;;12.02;100.00
41947;BME280;27638;42.184;24.848;2022-11-13T02:08:38;101465.88;;;12.00;100.00
41947;BME280;27638;42.184;24.848;2022-11-13T02:11:04;101467.88;;;11.87;100.00
41947;BME280;27638;42.184;24.848;2022-11-13T02:13:30;101471.03;;;11.81;100.00
41947;BME280;27638;42.184;24.848;2022-11-13T02:15:56;101477.31;;;12.01;100.00
41947;BME280;27638;42.184;24.848;2022-11-13T02:18:21;101476.22;;;12.03;100.00
41947;BME280;27638;42.184;24.848;2022-11-13T02:21:05;101480.81;;;12.01;100.00
41947;BME280;27638;42.184;24.848;2022-11-13T02:23:59;101475.25;;;12.04;100.00
41947;BME280;27638;42.184;24.848;2022-11-13T02:26:26;101470.78;;;12.05;100.00
41947;BME280;27638;42.184;24.848;2022-11-13T02:28:53;101467.94;;;11.97;100.00
41947;BME280;27638;42.184;24.848;2022-11-13T02:31:19;101463.34;;;11.99;100.00
41947;BME280;27638;42.184;24.848;2022-11-13T02:33:44;101463.09;;;12.02;100.00
41947;BME280;27638;42.184;24.848;2022-11-13T02:36:11;101463.09;;;12.02;100.00
41947;BME280;27638;42.184;24.848;2022-11-13T02:38:37;101462.56;;;12.08;100.00
41947;BME280;27638;42.184;24.848;2022-11-13T02:41:04;101451.09;;;12.07;100.00
41947;BME280;27638;42.184;24.848;2022-11-13T02:43:30;101465.66;;;12.13;100.00
41947;BME280;27638;42.184;24.848;2022-11-13T02:45:55;101471.56;;;12.17;100.00
41947;BME280;27638;42.184;24.848;2022-11-13T02:48:21;101458.53;;;12.13;100.00
41947;BME280;27638;42.184;24.848;2022-11-13T02:50:46;101459.91;;;12.08;100.00
41947;BME280;27638;42.184;24.848;2022-11-13T02:53:12;101465.81;;;12.11;100.00
41947;BME280;27638;42.184;24.848;2022-11-13T02:55:37;101461.72;;;12.07;100.00
41947;BME280;27638;42.184;24.848;2022-11-13T02:58:03;101463.59;;;12.17;100.00
41947;BME280;27638;42.184;24.848;2022-11-13T03:00:28;101467.66;;;12.21;100.00
41947;BME280;27638;42.184;24.848;2022-11-13T03:02:54;101453.81;;;12.17;100.00
41947;BME280;27638;42.184;24.848;2022-11-13T03:05:20;101457.88;;;12.21;100.00
41947;BME280;27638;42.184;24.848;2022-11-13T03:07:46;101466.00;;;12.20;100.00
41947;BME280;27638;42.184;24.848;2022-11-13T03:10:12;101459.84;;;12.19;100.00
41947;BME280;27638;42.184;24.848;2022-11-13T03:12:37;101451.88;;;12.19;100.00
41947;BME280;27638;42.184;24.848;2022-11-13T03:15:04;101457.19;;;12.19;100.00
41947;BME280;27638;42.184;24.848;2022-11-13T03:17:30;101442.34;;;12.17;100.00
41947;BME280;27638;42.184;24.848;2022-11-13T03:19:56;101457.88;;;12.21;100.00
41947;BME280;27638;42.184;24.848;2022-11-13T03:22:22;101455.09;;;12.23;100.00
41947;BME280;27638;42.184;24.848;2022-11-13T03:24:48;101454.13;;;12.24;100.00
41947;BME280;27638;42.184;24.848;2022-11-13T03:27:13;101449.34;;;12.18;100.00
41947;BME280;27638;42.184;24.848;2022-11-13T03:29:38;101459.44;;;12.24;100.00
41947;BME280;27638;42.184;24.848;2022-11-13T03:32:04;101459.44;;;12.24;100.00
41947;BME280;27638;42.184;24.848;2022-11-13T03:34:30;101455.22;;;12.21;100.00
41947;BME280;27638;42.184;24.848;2022-11-13T03:36:55;101446.69;;;12.18;100.00
41947;BME280;27638;42.184;24.848;2022-11-13T03:39:20;101452.84;;;12.18;100.00
41947;BME280;27638;42.184;24.848;2022-11-13T03:41:46;101450.06;;;12.20;100.00
41947;BME280;27638;42.184;24.848;2022-11-13T03:44:12;101452.84;;;12.18;100.00
41947;BME280;27638;42.184;24.848;2022-11-13T03:46:37;101453.09;;;12.15;100.00
41947;BME280;27638;42.184;24.848;2022-11-13T03:49:02;101449.72;;;12.13;100.00
41947;BME280;27638;42.184;24.848;2022-11-13T03:51:28;101447.22;;;12.11;100.00
41947;BME280;27638;42.184;24.848;2022-11-13T03:53:53;101446.25;;;12.12;100.00
41947;BME280;27638;42.184;24.848;2022-11-13T03:56:19;101450.13;;;12.08;100.00
41947;BME280;27638;42.184;24.848;2022-11-13T03:58:44;101446.44;;;12.00;100.00
41947;BME280;27638;42.184;24.848;2022-11-13T04:01:10;101447.16;;;12.02;100.00
41947;BME280;27638;42.184;24.848;2022-11-13T04:03:35;101442.09;;;11.99;100.00
41947;BME280;27638;42.184;24.848;2022-11-13T04:06:00;101446.69;;;11.97;100.00
41947;BME280;27638;42.184;24.848;2022-11-13T04:08:26;101457.44;;;11.95;100.00
41947;BME280;27638;42.184;24.848;2022-11-13T04:10:51;101457.44;;;11.95;99.67
41947;BME280;27638;42.184;24.848;2022-11-13T04:13:17;101453.94;;;11.95;99.38
41947;BME280;27638;42.184;24.848;2022-11-13T04:15:42;101448.19;;;11.90;99.15
41947;BME280;27638;42.184;24.848;2022-11-13T04:18:08;101457.25;;;11.87;99.92
41947;BME280;27638;42.184;24.848;2022-11-13T04:20:33;101459.44;;;11.82;99.38
41947;BME280;27638;42.184;24.848;2022-11-13T04:22:58;101459.69;;;11.79;99.01
41947;BME280;27638;42.184;24.848;2022-11-13T04:25:24;101460.06;;;11.74;98.49
41947;BME280;27638;42.184;24.848;2022-11-13T04:27:51;101465.03;;;11.68;98.62
41947;BME280;27638;42.184;24.848;2022-11-13T04:30:17;101459.97;;;11.65;98.99
41947;BME280;27638;42.184;24.848;2022-11-13T04:32:43;101462.03;;;11.61;99.54
41947;BME280;27638;42.184;24.848;2022-11-13T04:35:09;101429.88;;;11.43;99.51
41947;BME280;27638;42.184;24.848;2022-11-13T04:37:34;101472.06;;;11.58;99.21
41947;BME280;27638;42.184;24.848;2022-11-13T04:40:00;101471.00;;;11.49;98.26
41947;BME280;27638;42.184;24.848;2022-11-13T04:42:25;101470.75;;;11.41;97.10
41947;BME280;27638;42.184;24.848;2022-11-13T04:45:09;101466.81;;;11.35;96.30
41947;BME280;27638;42.184;24.848;2022-11-13T04:47:34;101467.22;;;11.19;96.91
41947;BME280;27638;42.184;24.848;2022-11-13T04:50:00;101468.19;;;11.18;98.15
41947;BME280;27638;42.184;24.848;2022-11-13T04:52:26;101468.06;;;11.20;98.28
41947;BME280;27638;42.184;24.848;2022-11-13T04:54:53;101474.56;;;11.16;96.88
41947;BME280;27638;42.184;24.848;2022-11-13T04:57:18;101469.41;;;11.03;97.41
41947;BME280;27638;42.184;24.848;2022-11-13T04:59:44;101473.16;;;11.01;98.10
41947;BME280;27638;42.184;24.848;2022-11-13T05:02:09;101469.66;;;11.00;99.21
41947;BME280;27638;42.184;24.848;2022-11-13T05:04:34;101459.78;;;11.02;99.95
41947;BME280;27638;42.184;24.848;2022-11-13T05:07:00;101455.91;;;11.06;100.00
41947;BME280;27638;42.184;24.848;2022-11-13T05:09:25;101464.69;;;11.18;100.00
41947;BME280;27638;42.184;24.848;2022-11-13T05:11:51;101461.66;;;11.23;99.95
41947;BME280;27638;42.184;24.848;2022-11-13T05:14:17;101446.59;;;11.23;100.00
41947;BME280;27638;42.184;24.848;2022-11-13T05:16:43;101465.00;;;11.36;100.00
41947;BME280;27638;42.184;24.848;2022-11-13T05:19:09;101461.25;;;11.38;99.82
41947;BME280;27638;42.184;24.848;2022-11-13T05:21:35;101462.69;;;11.42;100.00
41947;BME280;27638;42.184;24.848;2022-11-13T05:24:03;101472.56;;;11.40;99.06
41947;BME280;27638;42.184;24.848;2022-11-13T05:26:29;101468.63;;;11.46;99.90
41947;BME280;27638;42.184;24.848;2022-11-13T05:28:58;101472.44;;;11.42;100.00
41947;BME280;27638;42.184;24.848;2022-11-13T05:31:24;101473.91;;;11.46;100.00
41947;BME280;27638;42.184;24.848;2022-11-13T05:33:50;101471.25;;;11.46;100.00
41947;BME280;27638;42.184;24.848;2022-11-13T05:36:17;101466.09;;;11.44;100.00
41947;BME280;27638;42.184;24.848;2022-11-13T05:38:43;101474.25;;;11.52;100.00
41947;BME280;27638;42.184;24.848;2022-11-13T05:41:11;101464.63;;;11.51;100.00
41947;BME280;27638;42.184;24.848;2022-11-13T05:43:38;101468.56;;;11.57;100.00
41947;BME280;27638;42.184;24.848;2022-11-13T05:46:12;101474.94;;;11.66;100.00
41947;BME280;27638;42.184;24.848;2022-11-13T05:48:38;101477.31;;;11.69;100.00
41947;BME280;27638;42.184;24.848;2022-11-13T05:51:08;101474.28;;;11.73;100.00
41947;BME280;27638;42.184;24.848;2022-11-13T05:53:35;101474.78;;;11.78;100.00
41947;BME280;27638;42.184;24.848;2022-11-13T05:58:31;101478.75;;;11.73;100.00
41947;BME280;27638;42.184;24.848;2022-11-13T06:03:31;101486.97;;;11.81;100.00
41947;BME280;27638;42.184;24.848;2022-11-13T06:05:58;101496.81;;;11.90;100.00
41947;BME280;27638;42.184;24.848;2022-11-13T06:08:23;101497.13;;;11.97;100.00
41947;BME280;27638;42.184;24.848;2022-11-13T06:10:49;101497.41;;;11.94;100.00
41947;BME280;27638;42.184;24.848;2022-11-13T06:13:14;101503.28;;;11.97;100.00
41947;BME280;27638;42.184;24.848;2022-11-13T06:15:40;101485.34;;;11.90;100.00
41947;BME280;27638;42.184;24.848;2022-11-13T06:18:05;101479.78;;;11.93;100.00
41947;BME280;27638;42.184;24.848;2022-11-13T06:20:33;101495.78;;;12.02;100.00
41947;BME280;27638;42.184;24.848;2022-11-13T06:22:59;101471.38;;;11.88;100.00
41947;BME280;27638;42.184;24.848;2022-11-13T06:25:24;101503.09;;;12.10;100.00
41947;BME280;27638;42.184;24.848;2022-11-13T06:27:51;101504.19;;;12.07;100.00
41947;BME280;27638;42.184;24.848;2022-11-13T06:30:17;101500.69;;;12.07;100.00
41947;BME280;27638;42.184;24.848;2022-11-13T06:32:43;101500.06;;;12.14;100.00
41947;BME280;27638;42.184;24.848;2022-11-13T06:35:08;101503.44;;;12.17;100.00
41947;BME280;27638;42.184;24.848;2022-11-13T06:37:34;101504.28;;;12.17;100.00
41947;BME280;27638;42.184;24.848;2022-11-13T06:39:59;101503.94;;;12.10;100.00
41947;BME280;27638;42.184;24.848;2022-11-13T06:42:25;101495.06;;;12.00;100.00
41947;BME280;27638;42.184;24.848;2022-11-13T06:44:51;101494.50;;;12.18;100.00
41947;BME280;27638;42.184;24.848;2022-11-13T06:47:16;101498.97;;;12.17;100.00
41947;BME280;27638;42.184;24.848;2022-11-13T06:49:41;101490.22;;;12.26;100.00
41947;BME280;27638;42.184;24.848;2022-11-13T06:52:07;101496.09;;;12.30;100.00
41947;BME280;27638;42.184;24.848;2022-11-13T06:54:32;101496.41;;;12.36;100.00
41947;BME280;27638;42.184;24.848;2022-11-13T06:56:58;101490.22;;;12.26;100.00
41947;BME280;27638;42.184;24.848;2022-11-13T06:59:23;101489.38;;;12.26;100.00
41947;BME280;27638;42.184;24.848;2022-11-13T07:01:51;101488.97;;;12.30;100.00
41947;BME280;27638;42.184;24.848;2022-11-13T07:04:17;101486.25;;;12.41;100.00
41947;BME280;27638;42.184;24.848;2022-11-13T07:06:42;101483.31;;;12.44;100.00
41947;BME280;27638;42.184;24.848;2022-11-13T07:09:07;101469.06;;;12.45;100.00
41947;BME280;27638;42.184;24.848;2022-11-13T07:11:33;101478.97;;;12.43;100.00
41947;BME280;27638;42.184;24.848;2022-11-13T07:13:58;101483.13;;;12.57;100.00
41947;BME280;27638;42.184;24.848;2022-11-13T07:16:24;101460.00;;;12.48;100.00
41947;BME280;27638;42.184;24.848;2022-11-13T07:18:51;101473.53;;;12.66;100.00
41947;BME280;27638;42.184;24.848;2022-11-13T07:21:17;101472.94;;;12.62;100.00
41947;BME280;27638;42.184;24.848;2022-11-13T07:23:42;101471.13;;;12.63;100.00
41947;BME280;27638;42.184;24.848;2022-11-13T07:26:09;101469.19;;;12.65;100.00
41947;BME280;27638;42.184;24.848;2022-11-13T07:28:35;101470.28;;;12.62;100.00
41947;BME280;27638;42.184;24.848;2022-11-13T07:31:01;101474.84;;;12.51;100.00
41947;BME280;27638;42.184;24.848;2022-11-13T07:33:26;101461.78;;;12.68;100.00
41947;BME280;27638;42.184;24.848;2022-11-13T07:35:55;101456.06;;;12.73;100.00
41947;BME280;27638;42.184;24.848;2022-11-13T07:38:21;101462.97;;;12.85;99.88
41947;BME280;27638;42.184;24.848;2022-11-13T07:40:46;101462.44;;;12.91;99.42
41947;BME280;27638;42.184;24.848;2022-11-13T07:43:12;101466.09;;;13.00;99.40
41947;BME280;27638;42.184;24.848;2022-11-13T07:45:38;101457.66;;;12.85;100.00
41947;BME280;27638;42.184;24.848;2022-11-13T07:48:04;101465.94;;;12.92;99.47
41947;BME280;27638;42.184;24.848;2022-11-13T07:50:32;101472.72;;;12.75;100.00
41947;BME280;27638;42.184;24.848;2022-11-13T07:53:03;101467.94;;;12.69;100.00
41947;BME280;27638;42.184;24.848;2022-11-13T07:55:29;101460.69;;;12.71;100.00
41947;BME280;27638;42.184;24.848;2022-11-13T07:57:56;101464.47;;;12.78;100.00
41947;BME280;27638;42.184;24.848;2022-11-13T08:00:23;101464.97;;;13.02;98.88
41947;BME280;27638;42.184;24.848;2022-11-13T08:02:48;101464.72;;;13.15;98.83
41947;BME280;27638;42.184;24.848;2022-11-13T08:05:14;101472.34;;;13.29;98.70
41947;BME280;27638;42.184;24.848;2022-11-13T08:07:40;101470.53;;;13.39;98.30
41947;BME280;27638;42.184;24.848;2022-11-13T08:10:05;101473.53;;;13.56;95.60
41947;BME280;27638;42.184;24.848;2022-11-13T08:12:31;101469.00;;;13.37;96.22
41947;BME280;27638;42.184;24.848;2022-11-13T08:14:56;101470.66;;;13.28;97.26
41947;BME280;27638;42.184;24.848;2022-11-13T08:17:22;101472.91;;;13.42;96.79
41947;BME280;27638;42.184;24.848;2022-11-13T08:19:47;101474.50;;;13.55;96.16
41947;BME280;27638;42.184;24.848;2022-11-13T08:22:13;101457.84;;;13.53;96.49
41947;BME280;27638;42.184;24.848;2022-11-13T08:24:38;101469.53;;;13.31;98.18
41947;BME280;27638;42.184;24.848;2022-11-13T08:27:05;101467.59;;;13.52;97.34
41947;BME280;27638;42.184;24.848;2022-11-13T08:29:30;101465.97;;;13.61;96.76
41947;BME280;27638;42.184;24.848;2022-11-13T08:31:56;101470.41;;;13.41;97.55
41947;BME280;27638;42.184;24.848;2022-11-13T08:34:21;101465.91;;;13.41;97.88
41947;BME280;27638;42.184;24.848;2022-11-13T08:36:47;101463.53;;;13.38;99.14
41947;BME280;27638;42.184;24.848;2022-11-13T08:39:12;101470.72;;;13.67;96.95
41947;BME280;27638;42.184;24.848;2022-11-13T08:41:38;101468.75;;;13.98;94.43
41947;BME280;27638;42.184;24.848;2022-11-13T08:44:04;101463.53;;;14.16;95.64
41947;BME280;27638;42.184;24.848;2022-11-13T08:46:29;101463.47;;;14.35;93.95
41947;BME280;27638;42.184;24.848;2022-11-13T08:48:55;101465.13;;;14.65;92.72
41947;BME280;27638;42.184;24.848;2022-11-13T08:51:20;101464.38;;;14.73;92.52
41947;BME280;27638;42.184;24.848;2022-11-13T08:53:46;101463.84;;;14.69;91.89
41947;BME280;27638;42.184;24.848;2022-11-13T08:56:11;101464.00;;;14.67;92.19
41947;BME280;27638;42.184;24.848;2022-11-13T08:58:37;101456.59;;;14.89;91.36
41947;BME280;27638;42.184;24.848;2022-11-13T09:01:03;101461.69;;;14.82;91.28
41947;BME280;27638;42.184;24.848;2022-11-13T09:03:29;101465.19;;;14.83;91.35
41947;BME280;27638;42.184;24.848;2022-11-13T09:05:54;101463.44;;;14.64;93.11
41947;BME280;27638;42.184;24.848;2022-11-13T09:08:19;101462.13;;;14.78;89.69
41947;BME280;27638;42.184;24.848;2022-11-13T09:10:45;101463.34;;;14.46;89.19
41947;BME280;27638;42.184;24.848;2022-11-13T09:13:11;101456.06;;;14.29;89.79
41947;BME280;27638;42.184;24.848;2022-11-13T09:15:37;101445.16;;;14.22;90.23
41947;BME280;27638;42.184;24.848;2022-11-13T09:18:03;101448.44;;;14.53;90.04
41947;BME280;27638;42.184;24.848;2022-11-13T09:20:31;101442.00;;;14.46;90.13
41947;BME280;27638;42.184;24.848;2022-11-13T09:23:06;101443.97;;;14.44;91.82
41947;BME280;27638;42.184;24.848;2022-11-13T09:25:34;101441.13;;;14.65;91.31
41947;BME280;27638;42.184;24.848;2022-11-13T09:28:01;101436.09;;;14.62;89.85
41947;BME280;27638;42.184;24.848;2022-11-13T09:30:28;101433.13;;;14.65;89.52
41947;BME280;27638;42.184;24.848;2022-11-13T09:32:55;101423.19;;;14.57;88.42
41947;BME280;27638;42.184;24.848;2022-11-13T09:35:22;101422.22;;;14.58;87.87
41947;BME280;27638;42.184;24.848;2022-11-13T09:38:05;101411.41;;;14.87;89.51
41947;BME280;27638;42.184;24.848;2022-11-13T09:40:35;101419.50;;;14.68;89.83
41947;BME280;27638;42.184;24.848;2022-11-13T09:43:04;101423.22;;;14.85;88.73
41947;BME280;27638;42.184;24.848;2022-11-13T09:45:34;101421.28;;;14.77;88.17
41947;BME280;27638;42.184;24.848;2022-11-13T09:48:31;101408.69;;;14.69;88.88
41947;BME280;27638;42.184;24.848;2022-11-13T09:51:04;101397.88;;;14.71;88.95
41947;BME280;27638;42.184;24.848;2022-11-13T09:53:34;101399.47;;;14.54;89.71
41947;BME280;27638;42.184;24.848;2022-11-13T09:56:12;101392.31;;;14.64;89.24
41947;BME280;27638;42.184;24.848;2022-11-13T09:58:50;101401.34;;;14.99;88.48
41947;BME280;27638;42.184;24.848;2022-11-13T10:01:25;101395.72;;;15.02;88.44
41947;BME280;27638;42.184;24.848;2022-11-13T10:03:57;101392.91;;;15.04;87.96
41947;BME280;27638;42.184;24.848;2022-11-13T10:14:28;101388.81;;;14.54;91.05
41947;BME280;27638;42.184;24.848;2022-11-13T10:17:03;101380.47;;;14.30;91.65
41947;BME280;27638;42.184;24.848;2022-11-13T10:22:01;101376.59;;;14.15;90.79
41947;BME280;27638;42.184;24.848;2022-11-13T10:24:39;101386.44;;;14.51;91.32
41947;BME280;27638;42.184;24.848;2022-11-13T10:27:12;101381.19;;;14.69;91.44
41947;BME280;27638;42.184;24.848;2022-11-13T10:29:38;101374.31;;;14.29;89.81
41947;BME280;27638;42.184;24.848;2022-11-13T10:32:15;101373.94;;;14.15;92.02
41947;BME280;27638;42.184;24.848;2022-11-13T10:34:57;101367.59;;;14.25;91.12
41947;BME280;27638;42.184;24.848;2022-11-13T10:40:05;101371.09;;;14.26;91.47
41947;BME280;27638;42.184;24.848;2022-11-13T10:42:39;101348.59;;;14.48;90.37
41947;BME280;27638;42.184;24.848;2022-11-13T10:45:16;101354.00;;;14.65;88.83
41947;BME280;27638;42.184;24.848;2022-11-13T10:47:45;101349.78;;;14.63;90.39
41947;BME280;27638;42.184;24.848;2022-11-13T10:52:47;101344.72;;;14.87;90.41
41947;BME280;27638;42.184;24.848;2022-11-13T10:57:53;101337.56;;;15.06;86.89
41947;BME280;27638;42.184;24.848;2022-11-13T11:02:49;101322.31;;;14.98;83.81
41947;BME280;27638;42.184;24.848;2022-11-13T11:05:21;101319.44;;;15.09;84.34
41947;BME280;27638;42.184;24.848;2022-11-13T11:07:47;101316.59;;;15.28;84.05
41947;BME280;27638;42.184;24.848;2022-11-13T11:10:30;101318.03;;;15.41;84.48
41947;BME280;27638;42.184;24.848;2022-11-13T11:13:02;101316.50;;;15.38;83.17
41947;BME280;27638;42.184;24.848;2022-11-13T11:15:43;101316.78;;;15.53;82.80
41947;BME280;27638;42.184;24.848;2022-11-13T11:18:28;101308.06;;;15.60;82.28
41947;BME280;27638;42.184;24.848;2022-11-13T11:20:59;101313.09;;;15.28;84.17
41947;BME280;27638;42.184;24.848;2022-11-13T11:26:11;101294.84;;;15.41;82.39
41947;BME280;27638;42.184;24.848;2022-11-13T11:28:44;101308.03;;;15.43;81.79
41947;BME280;27638;42.184;24.848;2022-11-13T11:31:19;101304.19;;;15.01;83.21
41947;BME280;27638;42.184;24.848;2022-11-13T11:33:53;101292.22;;;15.06;78.85
41947;BME280;27638;42.184;24.848;2022-11-13T11:36:33;101293.81;;;15.16;80.54
41947;BME280;27638;42.184;24.848;2022-11-13T11:41:54;101274.47;;;14.96;80.27
41947;BME280;27638;42.184;24.848;2022-11-13T11:44:29;101285.34;;;15.03;79.10
41947;BME280;27638;42.184;24.848;2022-11-13T11:46:56;101278.03;;;15.23;78.74
41947;BME280;27638;42.184;24.848;2022-11-13T11:49:24;101275.44;;;15.13;80.40
41947;BME280;27638;42.184;24.848;2022-11-13T12:00:09;101266.44;;;15.14;80.42
41947;BME280;27638;42.184;24.848;2022-11-13T12:08:02;101263.94;;;14.95;77.40
41947;BME280;27638;42.184;24.848;2022-11-13T12:21:22;101248.47;;;14.98;77.07
41947;BME280;27638;42.184;24.848;2022-11-13T12:26:31;101237.56;;;15.10;76.96
41947;BME280;27638;42.184;24.848;2022-11-13T12:32:23;101240.75;;;15.13;76.92
41947;BME280;27638;42.184;24.848;2022-11-13T12:35:00;101234.19;;;15.25;77.55
41947;BME280;27638;42.184;24.848;2022-11-13T12:37:33;101234.69;;;15.29;77.53
41947;BME280;27638;42.184;24.848;2022-11-13T12:40:26;101223.88;;;15.30;78.67
41947;BME280;27638;42.184;24.848;2022-11-13T12:42:56;101228.53;;;15.28;78.31
41947;BME280;27638;42.184;24.848;2022-11-13T12:47:54;101230.78;;;15.41;78.25
41947;BME280;27638;42.184;24.848;2022-11-13T12:50:30;101228.16;;;15.49;77.46
41947;BME280;27638;42.184;24.848;2022-11-13T12:53:07;101227.53;;;15.55;77.70
41947;BME280;27638;42.184;24.848;2022-11-13T12:55:36;101230.25;;;15.38;77.93
41947;BME280;27638;42.184;24.848;2022-11-13T12:58:23;101221.78;;;15.42;77.50
41947;BME280;27638;42.184;24.848;2022-11-13T13:01:16;101223.75;;;15.40;78.12
41947;BME280;27638;42.184;24.848;2022-11-13T13:07:04;101217.00;;;15.28;79.74
41947;BME280;27638;42.184;24.848;2022-11-13T13:09:54;101218.09;;;15.17;80.45
41947;BME280;27638;42.184;24.848;2022-11-13T13:15:42;101216.53;;;15.07;81.99
41947;BME280;27638;42.184;24.848;2022-11-13T13:18:32;101215.84;;;15.05;82.52
41947;BME280;27638;42.184;24.848;2022-11-13T13:23:30;101200.53;;;15.07;82.49
41947;BME280;27638;42.184;24.848;2022-11-13T13:28:54;101188.50;;;15.02;85.22
41947;BME280;27638;42.184;24.848;2022-11-13T13:34:15;101204.94;;;15.16;85.12
41947;BME280;27638;42.184;24.848;2022-11-13T13:37:24;101202.63;;;15.21;84.40
41947;BME280;27638;42.184;24.848;2022-11-13T13:42:55;101202.69;;;15.29;83.92
41947;BME280;27638;42.184;24.848;2022-11-13T13:48:29;101198.84;;;15.31;82.34
41947;BME280;27638;42.184;24.848;2022-11-13T13:50:56;101198.84;;;15.31;82.64
41947;BME280;27638;42.184;24.848;2022-11-13T13:53:28;101207.91;;;15.39;83.29
41947;BME280;27638;42.184;24.848;2022-11-13T13:55:55;101200.91;;;15.38;83.72
41947;BME280;27638;42.184;24.848;2022-11-13T13:58:29;101202.25;;;15.42;83.05
41947;BME280;27638;42.184;24.848;2022-11-13T14:01:02;101198.06;;;15.39;82.63
41947;BME280;27638;42.184;24.848;2022-11-13T14:03:28;101195.41;;;15.39;82.88
41947;BME280;27638;42.184;24.848;2022-11-13T14:05:55;101196.22;;;15.40;82.77